createdAt,value
2018-10-09T00:01:27.540Z,5.53
2018-10-09T00:04:30.034Z,4.87
2018-10-09T00:07:25.383Z,5.50
2018-10-09T00:37:26.038Z,8.03
2018-10-09T01:06:11.911Z,7.07
2018-10-09T01:09:15.681Z,6.37
2018-10-09T01:21:48.024Z,8.53
2018-10-09T01:31:24.884Z,7.87
2018-10-09T01:51:10.354Z,8.83
2018-10-09T02:20:27.485Z,9.30
2018-10-09T03:11:27.115Z,10.00
2018-10-09T03:14:31.525Z,9.33
2018-10-09T03:20:31.659Z,9.90
2018-10-09T03:23:20.618Z,9.87
2018-10-09T03:26:15.834Z,9.70
2018-10-09T03:41:22.251Z,9.77
2018-10-09T03:50:02.620Z,11.30
2018-10-09T03:52:59.226Z,10.93
2018-10-09T03:55:48.683Z,11.77
2018-10-09T03:58:38.379Z,10.87
2018-10-09T04:01:26.664Z,11.70
2018-10-09T04:04:26.312Z,10.97
2018-10-09T04:07:27.857Z,11.73
2018-10-09T04:10:19.806Z,11.43
2018-10-09T04:21:08.376Z,12.07
2018-10-09T04:27:05.749Z,11.47
2018-10-09T04:33:24.603Z,12.30
2018-10-09T04:36:19.715Z,12.87
2018-10-09T04:39:06.708Z,12.60
2018-10-09T04:41:54.745Z,12.57
2018-10-09T04:45:07.776Z,12.93
2018-10-09T04:47:59.601Z,11.83
2018-10-09T04:50:42.874Z,12.13
2018-10-09T04:53:42.128Z,12.80
2018-10-09T04:56:37.477Z,13.37
2018-10-09T04:59:41.543Z,12.30
2018-10-09T05:02:38.483Z,12.73
2018-10-09T05:05:31.844Z,12.97
2018-10-09T05:08:22.859Z,13.77
2018-10-09T05:11:08.674Z,13.23
2018-10-09T05:14:07.384Z,12.50
2018-10-09T05:16:57.745Z,13.40
2018-10-09T05:22:39.345Z,13.40
2018-10-09T05:25:26.153Z,13.97
2018-10-09T05:28:15.231Z,14.17
2018-10-09T05:31:04.338Z,13.87
2018-10-09T05:48:45.467Z,14.27
2018-10-09T05:54:25.485Z,15.37
2018-10-09T06:00:17.910Z,15.30
2018-10-09T06:11:46.907Z,15.57
2018-10-09T06:14:30.737Z,16.37
2018-10-09T06:17:22.862Z,15.70
2018-10-09T06:20:05.496Z,15.00
2018-10-09T06:22:58.531Z,15.40
2018-10-09T06:28:55.972Z,16.03
2018-10-09T06:31:38.116Z,16.57
2018-10-09T06:34:21.765Z,16.20
2018-10-09T06:40:18.026Z,15.47
2018-10-09T06:46:20.315Z,16.03
2018-10-09T06:51:58.650Z,16.93
2018-10-09T06:54:50.106Z,17.23
2018-10-09T07:00:38.673Z,16.17
2018-10-09T07:03:27.321Z,16.70
2018-10-09T07:06:08.568Z,16.00
2018-10-09T07:09:00.818Z,16.23
2018-10-09T07:11:48.789Z,17.63
2018-10-09T07:14:49.088Z,17.23
2018-10-09T07:26:35.077Z,18.00
2018-10-09T07:29:25.156Z,18.03
2018-10-09T07:32:17.794Z,19.07
2018-10-09T07:35:00.777Z,18.70
2018-10-09T07:37:50.052Z,18.53
2018-10-09T07:40:37.465Z,19.70
2018-10-09T07:43:23.451Z,18.87
2018-10-09T07:46:05.137Z,19.47
2018-10-09T07:48:54.439Z,19.37
2018-10-09T07:51:53.813Z,17.80
2018-10-09T07:54:40.214Z,19.30
2018-10-09T07:57:26.896Z,21.03
2018-10-09T08:04:09.851Z,19.73
2018-10-09T08:06:47.834Z,20.83
2018-10-09T08:09:44.400Z,20.17
2018-10-09T08:12:48.543Z,20.23
2018-10-09T08:15:47.542Z,21.83
2018-10-09T08:21:41.198Z,22.27
2018-10-09T08:24:33.116Z,22.93
2018-10-09T08:27:24.008Z,21.37
2018-10-09T08:33:11.876Z,20.70
2018-10-09T08:36:06.579Z,23.20
2018-10-09T08:38:59.683Z,21.40
2018-10-09T08:41:53.912Z,22.07
2018-10-09T08:50:24.502Z,22.13
2018-10-09T08:56:15.242Z,19.03
2018-10-09T09:01:49.970Z,12.20
2018-10-09T09:07:59.164Z,12.33
2018-10-09T09:10:57.198Z,12.10
2018-10-09T09:16:40.887Z,13.37
2018-10-09T09:19:27.994Z,13.70
2018-10-09T09:22:15.215Z,15.90
2018-10-09T09:24:59.253Z,17.07
2018-10-09T09:27:40.368Z,16.47
2018-10-09T09:49:52.120Z,18.87
2018-10-09T11:52:48.321Z,12.47
2018-10-09T12:18:56.107Z,10.50
2018-10-09T12:25:09.791Z,9.60
2018-10-09T13:49:18.063Z,8.80
2018-10-09T14:12:59.180Z,9.97
2018-10-09T14:16:03.679Z,9.60
2018-10-09T14:19:53.689Z,9.63
2018-10-09T14:23:11.005Z,10.93
2018-10-09T16:37:57.161Z,13.10
2018-10-09T16:40:27.637Z,12.17
2018-10-09T16:42:56.084Z,11.87
2018-10-09T16:45:28.092Z,12.73
2018-10-09T16:47:57.033Z,12.37
2018-10-09T16:50:28.431Z,11.93
2018-10-09T16:52:56.949Z,15.53
2018-10-09T16:55:29.258Z,13.73
2018-10-09T16:58:00.149Z,13.57
2018-10-09T17:00:35.001Z,13.07
2018-10-09T17:03:08.046Z,12.93
2018-10-09T17:05:39.547Z,14.03
2018-10-09T17:08:18.922Z,15.73
2018-10-09T17:13:25.903Z,15.87
2018-10-09T17:16:03.456Z,17.67
2018-10-09T17:18:32.503Z,17.57
2018-10-09T17:21:03.066Z,18.47
2018-10-09T17:23:38.789Z,18.50
2018-10-09T17:26:07.473Z,18.50
2018-10-09T17:28:36.688Z,18.63
2018-10-09T17:33:52.793Z,17.50
2018-10-09T17:36:21.214Z,16.63
2018-10-09T17:38:50.077Z,17.90
2018-10-09T17:41:18.966Z,19.50
2018-10-09T17:43:47.388Z,16.10
2018-10-09T17:46:16.127Z,17.77
2018-10-09T17:48:44.718Z,20.70
2018-10-09T17:51:13.170Z,21.77
2018-10-09T17:53:41.752Z,22.97
2018-10-09T17:56:10.341Z,29.53
2018-10-09T17:58:38.999Z,23.80
2018-10-09T18:01:07.468Z,21.40
2018-10-09T18:03:36.465Z,25.40
2018-10-09T18:06:05.029Z,27.60
2018-10-09T18:08:33.653Z,28.07
2018-10-09T18:11:08.843Z,30.73
2018-10-09T18:13:37.598Z,23.90
2018-10-09T18:16:06.659Z,19.27
2018-10-09T18:18:35.205Z,16.83
2018-10-09T18:21:03.934Z,25.27
2018-10-09T18:23:32.438Z,33.60
2018-10-09T18:26:01.869Z,44.50
2018-10-09T18:28:30.548Z,52.80
2018-10-09T18:30:59.397Z,38.63
2018-10-09T18:33:34.304Z,23.90
2018-10-09T19:10:25.451Z,14.73
2018-10-09T19:26:17.533Z,24.60
2018-10-09T19:38:40.149Z,20.77
2018-10-09T19:44:38.725Z,22.63
2018-10-09T20:24:49.474Z,14.03
2018-10-09T20:27:22.583Z,16.80
2018-10-09T20:29:54.569Z,15.30
2018-10-09T20:32:29.218Z,17.13
2018-10-09T20:35:25.773Z,18.20
2018-10-09T20:38:00.963Z,18.87
2018-10-09T20:40:36.284Z,16.60
2018-10-09T20:43:08.005Z,23.43
2018-10-09T20:45:37.065Z,22.43
2018-10-09T20:48:06.681Z,18.93
2018-10-09T20:50:35.882Z,18.67
2018-10-09T20:55:44.929Z,15.67
2018-10-09T20:58:13.940Z,15.50
2018-10-09T21:00:43.187Z,15.43
2018-10-09T21:03:12.302Z,16.53
2018-10-09T21:05:45.035Z,20.43
2018-10-09T21:08:19.620Z,36.77
